Auriesville, NY

11:18 PM EDT on July 30, 2016 (GMT -0400)
rural | | Change Station

Elev 289 ft 42.94 °N, 74.28 °W | Updated 10 minutes ago

Light Drizzle
Light Drizzle
71.2 °F
Feels Like 73 °F
N
4.2
Wind Variable Wind from East

Today
High -- | Low -- °F
--% Chance of Precip.
Yesterday
High -- | Low -- °F
Precip. -- in
Pressure 30.06 in
Visibility 10.0 miles
Clouds Mostly Cloudy 5000 ft
Overcast 6500 ft
Heat Index 73 °F
Dew Point 63 °F
Humidity 75%
Rainfall 0.00 in
Snow Depth Not available.
5:46 AM 8:19 PM
Waning Crescent, 9% visible
METAR KSCH 310057Z 36003KT 10SM -DZ BKN050 OVC065 23/17 A3006 RMK LAST
Pressure 30.06 in
Visibility 10.0 miles
Clouds Mostly Cloudy 5000 ft
Overcast 6500 ft
Heat Index 73 °F
Dew Point 63 °F
Humidity 75%
Rainfall 0.00 in
Snow Depth Not available.
5:46 AM 8:19 PM
Waning Crescent, 9% visible
METAR KSCH 310057Z 36003KT 10SM -DZ BKN050 OVC065 23/17 A3006 RMK LAST

10-Day Weather Forecast

Almanac

Astronomy

Jul. 30, 2016 Rise Set
Actual Time
Civil Twilight
Nautical Twilight
Astronomical Twilight
Moon
Length of Visible Light
Length of Day
Tomorrow will be .
, % of the Moon is Illuminated

Today's Extremes

State Highs State Lows

Community

WunderPhotos

Upload Photos

1,928,729 photos uploaded!

WunderBlog® & News

Nearby

Air Quality

  Air Quality AQ Index Pollutant
Not available.

Snow Depth

Station Depth Elevation

Earthquake Activity

City Distance Mag. Time & Date
Minimum magnitude displayed is 2.5.

Coastal Water Temperatures

Place Temperature

Stations

Nearby Weather Stations

Station Location Temp. Windchill Dew Point Humidity Wind Precip. Elev Updated Type
                   

Watches & Warnings

There are currently no watches in effect.